sensor_id;sensor_type;location;lat;lon;timestamp;P1;durP1;ratioP1;P2;durP2;ratioP2
53309;SDS011;39197;53.200;5.792;2023-04-25T00:00:25;29.40;;;5.32;;
53309;SDS011;39197;53.200;5.792;2023-04-25T00:02:51;20.15;;;3.85;;
53309;SDS011;39197;53.200;5.792;2023-04-25T00:05:17;20.88;;;4.40;;
53309;SDS011;39197;53.200;5.792;2023-04-25T00:07:44;32.22;;;5.22;;
53309;SDS011;39197;53.200;5.792;2023-04-25T00:10:10;26.55;;;4.30;;
53309;SDS011;39197;53.200;5.792;2023-04-25T00:12:38;24.20;;;3.55;;
53309;SDS011;39197;53.200;5.792;2023-04-25T00:15:04;24.17;;;4.68;;
53309;SDS011;39197;53.200;5.792;2023-04-25T00:17:30;19.17;;;3.08;;
53309;SDS011;39197;53.200;5.792;2023-04-25T00:19:56;15.60;;;3.15;;
53309;SDS011;39197;53.200;5.792;2023-04-25T00:22:23;21.67;;;3.40;;
53309;SDS011;39197;53.200;5.792;2023-04-25T00:24:49;17.50;;;2.88;;
53309;SDS011;39197;53.200;5.792;2023-04-25T00:27:15;19.50;;;3.55;;
53309;SDS011;39197;53.200;5.792;2023-04-25T00:29:41;19.25;;;2.97;;
53309;SDS011;39197;53.200;5.792;2023-04-25T00:32:06;19.33;;;3.33;;
53309;SDS011;39197;53.200;5.792;2023-04-25T00:34:32;19.80;;;3.08;;
53309;SDS011;39197;53.200;5.792;2023-04-25T00:36:57;15.70;;;3.33;;
53309;SDS011;39197;53.200;5.792;2023-04-25T00:39:23;16.67;;;2.95;;
53309;SDS011;39197;53.200;5.792;2023-04-25T00:41:49;15.95;;;3.40;;
53309;SDS011;39197;53.200;5.792;2023-04-25T00:44:18;20.10;;;2.13;;
53309;SDS011;39197;53.200;5.792;2023-04-25T00:46:44;12.50;;;2.38;;
53309;SDS011;39197;53.200;5.792;2023-04-25T00:49:12;18.48;;;2.40;;
53309;SDS011;39197;53.200;5.792;2023-04-25T00:51:40;14.85;;;2.42;;
53309;SDS011;39197;53.200;5.792;2023-04-25T00:54:06;16.50;;;3.17;;
53309;SDS011;39197;53.200;5.792;2023-04-25T00:56:32;17.50;;;3.10;;
53309;SDS011;39197;53.200;5.792;2023-04-25T00:58:58;18.92;;;2.75;;
53309;SDS011;39197;53.200;5.792;2023-04-25T01:01:23;20.27;;;3.28;;
53309;SDS011;39197;53.200;5.792;2023-04-25T01:03:49;22.92;;;2.13;;
53309;SDS011;39197;53.200;5.792;2023-04-25T01:06:16;14.65;;;3.58;;
53309;SDS011;39197;53.200;5.792;2023-04-25T01:08:41;19.55;;;1.95;;
53309;SDS011;39197;53.200;5.792;2023-04-25T01:11:07;17.23;;;2.55;;
53309;SDS011;39197;53.200;5.792;2023-04-25T01:13:33;25.50;;;4.22;;
53309;SDS011;39197;53.200;5.792;2023-04-25T01:16:00;14.80;;;3.47;;
53309;SDS011;39197;53.200;5.792;2023-04-25T01:18:27;17.50;;;2.65;;
53309;SDS011;39197;53.200;5.792;2023-04-25T01:20:53;12.98;;;1.75;;
53309;SDS011;39197;53.200;5.792;2023-04-25T01:23:20;19.92;;;2.53;;
53309;SDS011;39197;53.200;5.792;2023-04-25T01:25:46;13.68;;;2.33;;
53309;SDS011;39197;53.200;5.792;2023-04-25T01:28:15;10.27;;;1.60;;
53309;SDS011;39197;53.200;5.792;2023-04-25T01:30:41;9.38;;;1.17;;
53309;SDS011;39197;53.200;5.792;2023-04-25T01:33:08;11.23;;;1.85;;
53309;SDS011;39197;53.200;5.792;2023-04-25T01:35:34;10.48;;;1.67;;
53309;SDS011;39197;53.200;5.792;2023-04-25T01:37:59;6.82;;;0.82;;
53309;SDS011;39197;53.200;5.792;2023-04-25T01:40:25;9.48;;;1.58;;
53309;SDS011;39197;53.200;5.792;2023-04-25T01:42:52;4.95;;;0.90;;
53309;SDS011;39197;53.200;5.792;2023-04-25T01:45:18;8.38;;;1.00;;
53309;SDS011;39197;53.200;5.792;2023-04-25T01:47:44;7.60;;;1.00;;
53309;SDS011;39197;53.200;5.792;2023-04-25T01:50:14;9.50;;;1.02;;
53309;SDS011;39197;53.200;5.792;2023-04-25T01:52:40;6.72;;;1.08;;
53309;SDS011;39197;53.200;5.792;2023-04-25T01:55:05;12.38;;;1.65;;
53309;SDS011;39197;53.200;5.792;2023-04-25T01:57:31;16.95;;;1.60;;
53309;SDS011;39197;53.200;5.792;2023-04-25T01:59:58;13.68;;;2.00;;
53309;SDS011;39197;53.200;5.792;2023-04-25T02:02:25;14.63;;;1.40;;
53309;SDS011;39197;53.200;5.792;2023-04-25T02:04:51;11.32;;;1.35;;
53309;SDS011;39197;53.200;5.792;2023-04-25T02:07:17;10.68;;;1.77;;
53309;SDS011;39197;53.200;5.792;2023-04-25T02:09:42;12.50;;;2.10;;
53309;SDS011;39197;53.200;5.792;2023-04-25T02:12:09;11.85;;;1.13;;
53309;SDS011;39197;53.200;5.792;2023-04-25T02:14:35;13.18;;;1.95;;
53309;SDS011;39197;53.200;5.792;2023-04-25T02:17:01;9.07;;;1.15;;
53309;SDS011;39197;53.200;5.792;2023-04-25T02:19:27;14.82;;;1.02;;
53309;SDS011;39197;53.200;5.792;2023-04-25T02:21:52;8.35;;;1.20;;
53309;SDS011;39197;53.200;5.792;2023-04-25T02:24:18;9.95;;;1.33;;
53309;SDS011;39197;53.200;5.792;2023-04-25T02:26:44;12.73;;;1.15;;
53309;SDS011;39197;53.200;5.792;2023-04-25T02:29:09;12.18;;;1.30;;
53309;SDS011;39197;53.200;5.792;2023-04-25T02:31:35;9.75;;;1.02;;
53309;SDS011;39197;53.200;5.792;2023-04-25T02:34:01;12.68;;;2.22;;
53309;SDS011;39197;53.200;5.792;2023-04-25T02:36:26;11.02;;;1.27;;
53309;SDS011;39197;53.200;5.792;2023-04-25T02:38:52;9.38;;;1.70;;
53309;SDS011;39197;53.200;5.792;2023-04-25T02:41:18;8.55;;;1.20;;
53309;SDS011;39197;53.200;5.792;2023-04-25T02:43:43;10.95;;;1.13;;
53309;SDS011;39197;53.200;5.792;2023-04-25T02:46:09;14.13;;;1.30;;
53309;SDS011;39197;53.200;5.792;2023-04-25T02:48:34;11.80;;;1.52;;
53309;SDS011;39197;53.200;5.792;2023-04-25T02:51:00;10.65;;;0.93;;
53309;SDS011;39197;53.200;5.792;2023-04-25T02:53:26;7.82;;;1.00;;
53309;SDS011;39197;53.200;5.792;2023-04-25T02:55:51;15.57;;;1.77;;
53309;SDS011;39197;53.200;5.792;2023-04-25T02:58:17;13.52;;;1.65;;
53309;SDS011;39197;53.200;5.792;2023-04-25T03:00:43;15.70;;;1.70;;
53309;SDS011;39197;53.200;5.792;2023-04-25T03:03:09;13.40;;;2.20;;
53309;SDS011;39197;53.200;5.792;2023-04-25T03:05:34;9.73;;;1.40;;
53309;SDS011;39197;53.200;5.792;2023-04-25T03:08:00;9.20;;;1.52;;
53309;SDS011;39197;53.200;5.792;2023-04-25T03:10:25;15.10;;;1.67;;
53309;SDS011;39197;53.200;5.792;2023-04-25T03:12:51;11.23;;;1.70;;
53309;SDS011;39197;53.200;5.792;2023-04-25T03:15:17;14.23;;;1.92;;
53309;SDS011;39197;53.200;5.792;2023-04-25T03:17:43;12.57;;;2.08;;
53309;SDS011;39197;53.200;5.792;2023-04-25T03:20:09;13.02;;;1.88;;
53309;SDS011;39197;53.200;5.792;2023-04-25T03:22:35;10.65;;;1.85;;
53309;SDS011;39197;53.200;5.792;2023-04-25T03:25:01;8.20;;;0.95;;
53309;SDS011;39197;53.200;5.792;2023-04-25T03:27:26;11.57;;;2.05;;
53309;SDS011;39197;53.200;5.792;2023-04-25T03:29:52;10.52;;;1.33;;
53309;SDS011;39197;53.200;5.792;2023-04-25T03:32:17;11.10;;;1.25;;
53309;SDS011;39197;53.200;5.792;2023-04-25T03:34:43;9.23;;;0.73;;
53309;SDS011;39197;53.200;5.792;2023-04-25T03:37:09;12.43;;;0.98;;
53309;SDS011;39197;53.200;5.792;2023-04-25T03:39:34;8.52;;;1.20;;
53309;SDS011;39197;53.200;5.792;2023-04-25T03:42:00;13.98;;;1.00;;
53309;SDS011;39197;53.200;5.792;2023-04-25T03:44:25;10.77;;;1.63;;
53309;SDS011;39197;53.200;5.792;2023-04-25T03:46:51;13.52;;;1.38;;
53309;SDS011;39197;53.200;5.792;2023-04-25T03:49:17;10.50;;;1.58;;
53309;SDS011;39197;53.200;5.792;2023-04-25T03:51:42;9.65;;;1.67;;
53309;SDS011;39197;53.200;5.792;2023-04-25T03:54:08;14.18;;;1.60;;
53309;SDS011;39197;53.200;5.792;2023-04-25T03:56:33;9.23;;;0.90;;
53309;SDS011;39197;53.200;5.792;2023-04-25T03:58:59;11.15;;;1.08;;
53309;SDS011;39197;53.200;5.792;2023-04-25T04:01:25;13.18;;;1.75;;
53309;SDS011;39197;53.200;5.792;2023-04-25T04:03:51;11.68;;;1.65;;
53309;SDS011;39197;53.200;5.792;2023-04-25T04:06:16;13.38;;;1.27;;
53309;SDS011;39197;53.200;5.792;2023-04-25T04:08:42;9.27;;;1.38;;
53309;SDS011;39197;53.200;5.792;2023-04-25T04:11:07;12.25;;;1.08;;
53309;SDS011;39197;53.200;5.792;2023-04-25T04:13:33;10.73;;;1.17;;
53309;SDS011;39197;53.200;5.792;2023-04-25T04:15:58;8.15;;;1.15;;
53309;SDS011;39197;53.200;5.792;2023-04-25T04:18:24;11.05;;;0.98;;
53309;SDS011;39197;53.200;5.792;2023-04-25T04:20:50;12.75;;;1.55;;
53309;SDS011;39197;53.200;5.792;2023-04-25T04:23:15;12.73;;;1.23;;
53309;SDS011;39197;53.200;5.792;2023-04-25T04:25:41;10.02;;;2.47;;
53309;SDS011;39197;53.200;5.792;2023-04-25T04:28:07;9.43;;;1.08;;
53309;SDS011;39197;53.200;5.792;2023-04-25T04:30:32;6.50;;;0.75;;
53309;SDS011;39197;53.200;5.792;2023-04-25T04:33:01;9.30;;;1.27;;
53309;SDS011;39197;53.200;5.792;2023-04-25T04:35:27;6.88;;;0.65;;
53309;SDS011;39197;53.200;5.792;2023-04-25T04:37:53;10.95;;;2.03;;
53309;SDS011;39197;53.200;5.792;2023-04-25T04:40:19;15.77;;;1.38;;
53309;SDS011;39197;53.200;5.792;2023-04-25T04:42:45;12.45;;;1.25;;
53309;SDS011;39197;53.200;5.792;2023-04-25T04:45:11;10.02;;;1.10;;
53309;SDS011;39197;53.200;5.792;2023-04-25T04:47:37;4.88;;;0.73;;
53309;SDS011;39197;53.200;5.792;2023-04-25T04:50:05;10.63;;;0.93;;
53309;SDS011;39197;53.200;5.792;2023-04-25T04:52:37;6.93;;;0.98;;
53309;SDS011;39197;53.200;5.792;2023-04-25T04:55:03;8.35;;;0.60;;
53309;SDS011;39197;53.200;5.792;2023-04-25T04:57:30;6.40;;;0.70;;
53309;SDS011;39197;53.200;5.792;2023-04-25T04:59:57;12.25;;;1.08;;
53309;SDS011;39197;53.200;5.792;2023-04-25T05:02:23;12.95;;;1.40;;
53309;SDS011;39197;53.200;5.792;2023-04-25T05:04:49;7.32;;;1.45;;
53309;SDS011;39197;53.200;5.792;2023-04-25T05:07:16;9.25;;;1.00;;
53309;SDS011;39197;53.200;5.792;2023-04-25T05:09:42;16.10;;;1.58;;
53309;SDS011;39197;53.200;5.792;2023-04-25T05:12:07;9.45;;;1.08;;
53309;SDS011;39197;53.200;5.792;2023-04-25T05:14:33;10.80;;;1.10;;
53309;SDS011;39197;53.200;5.792;2023-04-25T05:16:59;11.15;;;2.17;;
53309;SDS011;39197;53.200;5.792;2023-04-25T05:19:25;10.68;;;1.08;;
53309;SDS011;39197;53.200;5.792;2023-04-25T05:21:51;6.55;;;0.73;;
53309;SDS011;39197;53.200;5.792;2023-04-25T05:24:17;9.48;;;1.83;;
53309;SDS011;39197;53.200;5.792;2023-04-25T05:26:42;15.07;;;2.85;;
53309;SDS011;39197;53.200;5.792;2023-04-25T05:29:08;13.55;;;1.58;;
53309;SDS011;39197;53.200;5.792;2023-04-25T05:31:36;7.78;;;1.45;;
53309;SDS011;39197;53.200;5.792;2023-04-25T05:34:02;10.73;;;1.08;;
53309;SDS011;39197;53.200;5.792;2023-04-25T05:36:27;13.82;;;1.48;;
53309;SDS011;39197;53.200;5.792;2023-04-25T05:38:53;11.18;;;1.92;;
53309;SDS011;39197;53.200;5.792;2023-04-25T05:41:19;9.57;;;1.23;;
53309;SDS011;39197;53.200;5.792;2023-04-25T05:43:45;11.82;;;0.70;;
53309;SDS011;39197;53.200;5.792;2023-04-25T05:46:13;11.93;;;1.00;;
53309;SDS011;39197;53.200;5.792;2023-04-25T05:48:39;9.27;;;1.05;;
53309;SDS011;39197;53.200;5.792;2023-04-25T05:51:05;8.43;;;1.17;;
53309;SDS011;39197;53.200;5.792;2023-04-25T05:53:30;4.72;;;0.57;;
53309;SDS011;39197;53.200;5.792;2023-04-25T05:55:56;2.72;;;0.40;;
53309;SDS011;39197;53.200;5.792;2023-04-25T05:58:21;5.75;;;0.52;;
53309;SDS011;39197;53.200;5.792;2023-04-25T06:00:47;5.95;;;0.50;;
53309;SDS011;39197;53.200;5.792;2023-04-25T06:03:13;5.90;;;0.40;;
53309;SDS011;39197;53.200;5.792;2023-04-25T06:05:41;4.93;;;0.73;;
53309;SDS011;39197;53.200;5.792;2023-04-25T06:08:07;5.13;;;0.57;;
53309;SDS011;39197;53.200;5.792;2023-04-25T06:10:33;5.55;;;1.35;;
53309;SDS011;39197;53.200;5.792;2023-04-25T06:12:59;6.78;;;0.70;;
53309;SDS011;39197;53.200;5.792;2023-04-25T06:15:25;7.00;;;0.95;;
53309;SDS011;39197;53.200;5.792;2023-04-25T06:17:50;7.00;;;1.00;;
53309;SDS011;39197;53.200;5.792;2023-04-25T06:20:16;8.48;;;1.73;;
53309;SDS011;39197;53.200;5.792;2023-04-25T06:22:41;9.05;;;0.88;;
53309;SDS011;39197;53.200;5.792;2023-04-25T06:25:07;9.55;;;1.30;;
53309;SDS011;39197;53.200;5.792;2023-04-25T06:27:33;8.50;;;1.20;;
53309;SDS011;39197;53.200;5.792;2023-04-25T06:29:59;6.45;;;0.90;;
53309;SDS011;39197;53.200;5.792;2023-04-25T06:32:24;18.05;;;3.42;;
53309;SDS011;39197;53.200;5.792;2023-04-25T06:34:52;9.18;;;1.38;;
53309;SDS011;39197;53.200;5.792;2023-04-25T06:37:18;10.13;;;1.70;;
53309;SDS011;39197;53.200;5.792;2023-04-25T06:39:43;8.15;;;1.05;;
53309;SDS011;39197;53.200;5.792;2023-04-25T06:42:09;7.53;;;0.80;;
53309;SDS011;39197;53.200;5.792;2023-04-25T06:44:35;9.35;;;0.98;;
53309;SDS011;39197;53.200;5.792;2023-04-25T06:47:00;10.75;;;1.13;;
53309;SDS011;39197;53.200;5.792;2023-04-25T06:49:26;8.80;;;1.17;;
53309;SDS011;39197;53.200;5.792;2023-04-25T06:51:51;9.18;;;1.35;;
53309;SDS011;39197;53.200;5.792;2023-04-25T06:54:17;14.05;;;1.67;;
53309;SDS011;39197;53.200;5.792;2023-04-25T06:56:43;7.13;;;1.20;;
53309;SDS011;39197;53.200;5.792;2023-04-25T06:59:08;6.75;;;0.90;;
53309;SDS011;39197;53.200;5.792;2023-04-25T07:01:34;8.80;;;1.33;;
53309;SDS011;39197;53.200;5.792;2023-04-25T07:04:00;10.00;;;1.60;;
53309;SDS011;39197;53.200;5.792;2023-04-25T07:06:26;9.90;;;2.15;;
53309;SDS011;39197;53.200;5.792;2023-04-25T07:08:52;10.55;;;1.27;;
53309;SDS011;39197;53.200;5.792;2023-04-25T07:11:18;10.40;;;1.70;;
53309;SDS011;39197;53.200;5.792;2023-04-25T07:13:44;9.05;;;1.58;;
53309;SDS011;39197;53.200;5.792;2023-04-25T07:16:10;5.93;;;0.82;;
53309;SDS011;39197;53.200;5.792;2023-04-25T07:18:35;10.02;;;0.95;;
53309;SDS011;39197;53.200;5.792;2023-04-25T07:21:01;7.32;;;0.95;;
53309;SDS011;39197;53.200;5.792;2023-04-25T07:23:27;11.35;;;1.67;;
53309;SDS011;39197;53.200;5.792;2023-04-25T07:25:52;9.90;;;1.92;;
53309;SDS011;39197;53.200;5.792;2023-04-25T07:28:18;7.85;;;1.27;;
53309;SDS011;39197;53.200;5.792;2023-04-25T07:30:43;7.40;;;1.42;;
53309;SDS011;39197;53.200;5.792;2023-04-25T07:33:09;11.07;;;1.63;;
53309;SDS011;39197;53.200;5.792;2023-04-25T07:35:35;9.52;;;1.65;;
53309;SDS011;39197;53.200;5.792;2023-04-25T07:38:01;11.90;;;1.95;;
53309;SDS011;39197;53.200;5.792;2023-04-25T07:40:27;10.77;;;1.00;;
53309;SDS011;39197;53.200;5.792;2023-04-25T07:42:52;7.75;;;1.33;;
53309;SDS011;39197;53.200;5.792;2023-04-25T07:45:18;12.88;;;0.93;;
53309;SDS011;39197;53.200;5.792;2023-04-25T07:47:44;9.55;;;1.23;;
53309;SDS011;39197;53.200;5.792;2023-04-25T07:50:09;7.53;;;1.42;;
53309;SDS011;39197;53.200;5.792;2023-04-25T07:52:36;9.70;;;1.17;;
53309;SDS011;39197;53.200;5.792;2023-04-25T07:55:01;10.68;;;1.30;;
53309;SDS011;39197;53.200;5.792;2023-04-25T07:57:27;8.95;;;1.10;;
53309;SDS011;39197;53.200;5.792;2023-04-25T07:59:53;6.55;;;1.38;;
53309;SDS011;39197;53.200;5.792;2023-04-25T08:02:19;9.63;;;0.90;;
53309;SDS011;39197;53.200;5.792;2023-04-25T08:04:45;9.30;;;1.38;;
53309;SDS011;39197;53.200;5.792;2023-04-25T08:07:11;7.82;;;1.42;;
53309;SDS011;39197;53.200;5.792;2023-04-25T08:09:37;10.45;;;1.02;;
53309;SDS011;39197;53.200;5.792;2023-04-25T08:12:03;10.07;;;1.00;;
53309;SDS011;39197;53.200;5.792;2023-04-25T08:14:29;8.38;;;1.15;;
53309;SDS011;39197;53.200;5.792;2023-04-25T08:17:00;8.85;;;1.40;;
53309;SDS011;39197;53.200;5.792;2023-04-25T08:19:28;11.98;;;1.38;;
53309;SDS011;39197;53.200;5.792;2023-04-25T08:21:55;7.60;;;0.70;;
53309;SDS011;39197;53.200;5.792;2023-04-25T08:24:21;8.15;;;1.55;;
53309;SDS011;39197;53.200;5.792;2023-04-25T08:26:47;8.63;;;1.05;;
53309;SDS011;39197;53.200;5.792;2023-04-25T08:29:13;8.27;;;1.20;;
53309;SDS011;39197;53.200;5.792;2023-04-25T08:31:39;9.93;;;2.22;;
53309;SDS011;39197;53.200;5.792;2023-04-25T08:34:04;12.73;;;1.25;;
53309;SDS011;39197;53.200;5.792;2023-04-25T08:36:30;12.52;;;1.50;;
53309;SDS011;39197;53.200;5.792;2023-04-25T08:38:56;7.90;;;0.95;;
53309;SDS011;39197;53.200;5.792;2023-04-25T08:41:22;9.15;;;0.73;;
53309;SDS011;39197;53.200;5.792;2023-04-25T08:43:49;12.65;;;1.27;;
53309;SDS011;39197;53.200;5.792;2023-04-25T08:46:17;9.43;;;1.58;;
53309;SDS011;39197;53.200;5.792;2023-04-25T08:48:44;8.98;;;1.30;;
53309;SDS011;39197;53.200;5.792;2023-04-25T08:51:14;7.70;;;1.17;;
53309;SDS011;39197;53.200;5.792;2023-04-25T08:53:46;10.52;;;1.25;;
53309;SDS011;39197;53.200;5.792;2023-04-25T08:56:14;8.90;;;1.27;;
53309;SDS011;39197;53.200;5.792;2023-04-25T08:58:43;5.15;;;0.80;;
53309;SDS011;39197;53.200;5.792;2023-04-25T09:01:10;11.43;;;1.50;;
53309;SDS011;39197;53.200;5.792;2023-04-25T09:03:36;7.22;;;0.90;;
53309;SDS011;39197;53.200;5.792;2023-04-25T09:06:02;6.97;;;0.80;;
53309;SDS011;39197;53.200;5.792;2023-04-25T09:08:28;7.63;;;1.25;;
53309;SDS011;39197;53.200;5.792;2023-04-25T09:10:55;8.65;;;1.90;;
53309;SDS011;39197;53.200;5.792;2023-04-25T09:13:24;13.35;;;1.73;;
53309;SDS011;39197;53.200;5.792;2023-04-25T09:15:52;9.52;;;1.42;;
53309;SDS011;39197;53.200;5.792;2023-04-25T09:18:25;6.57;;;1.05;;
53309;SDS011;39197;53.200;5.792;2023-04-25T09:20:54;9.13;;;1.30;;
53309;SDS011;39197;53.200;5.792;2023-04-25T09:23:21;9.50;;;1.75;;
53309;SDS011;39197;53.200;5.792;2023-04-25T09:25:49;6.53;;;2.25;;
53309;SDS011;39197;53.200;5.792;2023-04-25T09:28:25;7.97;;;1.98;;
53309;SDS011;39197;53.200;5.792;2023-04-25T09:30:58;10.40;;;1.33;;
53309;SDS011;39197;53.200;5.792;2023-04-25T09:33:30;7.00;;;1.00;;
53309;SDS011;39197;53.200;5.792;2023-04-25T09:36:07;3.08;;;0.50;;
53309;SDS011;39197;53.200;5.792;2023-04-25T09:38:43;4.38;;;0.85;;
53309;SDS011;39197;53.200;5.792;2023-04-25T09:41:10;3.33;;;0.45;;
53309;SDS011;39197;53.200;5.792;2023-04-25T09:43:37;5.05;;;0.85;;
53309;SDS011;39197;53.200;5.792;2023-04-25T09:46:10;11.02;;;1.65;;
53309;SDS011;39197;53.200;5.792;2023-04-25T09:48:36;9.85;;;1.00;;
53309;SDS011;39197;53.200;5.792;2023-04-25T09:53:35;10.00;;;1.33;;
53309;SDS011;39197;53.200;5.792;2023-04-25T09:56:06;10.48;;;3.60;;
53309;SDS011;39197;53.200;5.792;2023-04-25T09:58:37;7.80;;;1.15;;
53309;SDS011;39197;53.200;5.792;2023-04-25T10:01:06;25.33;;;4.18;;
53309;SDS011;39197;53.200;5.792;2023-04-25T10:03:43;8.82;;;1.23;;
53309;SDS011;39197;53.200;5.792;2023-04-25T10:06:17;9.65;;;1.10;;
53309;SDS011;39197;53.200;5.792;2023-04-25T10:08:44;10.07;;;2.03;;
53309;SDS011;39197;53.200;5.792;2023-04-25T10:11:13;11.57;;;1.80;;
53309;SDS011;39197;53.200;5.792;2023-04-25T10:13:40;10.25;;;1.75;;
53309;SDS011;39197;53.200;5.792;2023-04-25T10:16:07;6.43;;;0.77;;
53309;SDS011;39197;53.200;5.792;2023-04-25T10:18:35;8.25;;;1.48;;
53309;SDS011;39197;53.200;5.792;2023-04-25T10:21:02;8.88;;;0.95;;
53309;SDS011;39197;53.200;5.792;2023-04-25T10:23:30;8.35;;;1.20;;
53309;SDS011;39197;53.200;5.792;2023-04-25T10:26:00;7.47;;;1.17;;
53309;SDS011;39197;53.200;5.792;2023-04-25T10:28:26;8.90;;;0.90;;
53309;SDS011;39197;53.200;5.792;2023-04-25T10:30:59;10.48;;;1.42;;
53309;SDS011;39197;53.200;5.792;2023-04-25T10:33:34;6.57;;;0.88;;
53309;SDS011;39197;53.200;5.792;2023-04-25T10:36:11;8.80;;;1.75;;
53309;SDS011;39197;53.200;5.792;2023-04-25T10:38:38;7.80;;;1.90;;
53309;SDS011;39197;53.200;5.792;2023-04-25T10:41:04;11.80;;;3.50;;
53309;SDS011;39197;53.200;5.792;2023-04-25T10:46:01;12.13;;;2.38;;
53309;SDS011;39197;53.200;5.792;2023-04-25T10:48:30;10.98;;;1.55;;
53309;SDS011;39197;53.200;5.792;2023-04-25T10:51:09;5.38;;;0.95;;
53309;SDS011;39197;53.200;5.792;2023-04-25T10:53:57;4.63;;;1.27;;
53309;SDS011;39197;53.200;5.792;2023-04-25T10:56:37;5.53;;;2.17;;
53309;SDS011;39197;53.200;5.792;2023-04-25T11:01:42;7.43;;;1.35;;
53309;SDS011;39197;53.200;5.792;2023-04-25T11:04:19;4.28;;;0.60;;
53309;SDS011;39197;53.200;5.792;2023-04-25T11:09:29;4.22;;;0.60;;
53309;SDS011;39197;53.200;5.792;2023-04-25T11:11:58;5.47;;;1.05;;
53309;SDS011;39197;53.200;5.792;2023-04-25T11:14:25;4.78;;;1.20;;
53309;SDS011;39197;53.200;5.792;2023-04-25T11:16:55;14.18;;;1.65;;
53309;SDS011;39197;53.200;5.792;2023-04-25T11:19:22;7.75;;;1.52;;
53309;SDS011;39197;53.200;5.792;2023-04-25T11:21:49;5.35;;;0.90;;
53309;SDS011;39197;53.200;5.792;2023-04-25T11:24:16;9.20;;;0.80;;
53309;SDS011;39197;53.200;5.792;2023-04-25T11:26:42;8.18;;;2.20;;
53309;SDS011;39197;53.200;5.792;2023-04-25T11:29:08;8.45;;;1.15;;
53309;SDS011;39197;53.200;5.792;2023-04-25T11:31:34;8.55;;;1.02;;
53309;SDS011;39197;53.200;5.792;2023-04-25T11:34:00;6.20;;;1.38;;
53309;SDS011;39197;53.200;5.792;2023-04-25T11:36:25;7.68;;;1.50;;
53309;SDS011;39197;53.200;5.792;2023-04-25T11:38:51;4.18;;;0.88;;
53309;SDS011;39197;53.200;5.792;2023-04-25T11:41:18;10.23;;;1.85;;
53309;SDS011;39197;53.200;5.792;2023-04-25T11:43:47;6.25;;;1.73;;
53309;SDS011;39197;53.200;5.792;2023-04-25T11:46:14;9.48;;;1.70;;
53309;SDS011;39197;53.200;5.792;2023-04-25T11:48:40;7.65;;;1.05;;
53309;SDS011;39197;53.200;5.792;2023-04-25T11:51:07;10.05;;;2.13;;
53309;SDS011;39197;53.200;5.792;2023-04-25T11:53:33;8.95;;;1.80;;
53309;SDS011;39197;53.200;5.792;2023-04-25T11:55:59;6.90;;;0.80;;
53309;SDS011;39197;53.200;5.792;2023-04-25T11:58:25;6.60;;;0.98;;
53309;SDS011;39197;53.200;5.792;2023-04-25T12:00:52;6.40;;;0.70;;
53309;SDS011;39197;53.200;5.792;2023-04-25T12:03:18;7.80;;;1.42;;
53309;SDS011;39197;53.200;5.792;2023-04-25T12:05:44;5.53;;;0.80;;
53309;SDS011;39197;53.200;5.792;2023-04-25T12:08:13;5.43;;;0.70;;
53309;SDS011;39197;53.200;5.792;2023-04-25T12:10:44;6.50;;;0.90;;
53309;SDS011;39197;53.200;5.792;2023-04-25T12:13:17;8.98;;;0.77;;
53309;SDS011;39197;53.200;5.792;2023-04-25T12:15:45;4.32;;;0.77;;
53309;SDS011;39197;53.200;5.792;2023-04-25T12:18:10;6.63;;;1.00;;
53309;SDS011;39197;53.200;5.792;2023-04-25T12:20:36;6.53;;;1.15;;
53309;SDS011;39197;53.200;5.792;2023-04-25T12:23:05;4.65;;;0.90;;
53309;SDS011;39197;53.200;5.792;2023-04-25T12:25:36;6.22;;;1.10;;
53309;SDS011;39197;53.200;5.792;2023-04-25T12:28:19;7.38;;;1.05;;
53309;SDS011;39197;53.200;5.792;2023-04-25T12:30:55;7.03;;;1.13;;
53309;SDS011;39197;53.200;5.792;2023-04-25T12:33:29;7.18;;;1.67;;
53309;SDS011;39197;53.200;5.792;2023-04-25T12:35:57;12.73;;;2.60;;
53309;SDS011;39197;53.200;5.792;2023-04-25T12:38:24;10.18;;;1.73;;
53309;SDS011;39197;53.200;5.792;2023-04-25T12:40:50;8.88;;;1.65;;
53309;SDS011;39197;53.200;5.792;2023-04-25T12:43:16;11.23;;;4.53;;
53309;SDS011;39197;53.200;5.792;2023-04-25T12:45:42;6.05;;;2.15;;
53309;SDS011;39197;53.200;5.792;2023-04-25T12:48:09;8.40;;;1.83;;
53309;SDS011;39197;53.200;5.792;2023-04-25T12:50:35;7.55;;;1.98;;
53309;SDS011;39197;53.200;5.792;2023-04-25T12:53:00;6.07;;;0.82;;
53309;SDS011;39197;53.200;5.792;2023-04-25T12:55:26;6.57;;;1.17;;
53309;SDS011;39197;53.200;5.792;2023-04-25T12:57:51;11.57;;;1.80;;
53309;SDS011;39197;53.200;5.792;2023-04-25T13:00:17;9.85;;;1.27;;
53309;SDS011;39197;53.200;5.792;2023-04-25T13:02:45;12.32;;;1.52;;
53309;SDS011;39197;53.200;5.792;2023-04-25T13:05:11;11.07;;;2.10;;
53309;SDS011;39197;53.200;5.792;2023-04-25T13:07:38;11.77;;;1.42;;
53309;SDS011;39197;53.200;5.792;2023-04-25T13:10:04;5.55;;;1.13;;
53309;SDS011;39197;53.200;5.792;2023-04-25T13:12:31;16.05;;;1.63;;
53309;SDS011;39197;53.200;5.792;2023-04-25T13:14:56;7.38;;;1.00;;
53309;SDS011;39197;53.200;5.792;2023-04-25T13:17:22;5.28;;;1.23;;
53309;SDS011;39197;53.200;5.792;2023-04-25T13:19:48;7.45;;;1.35;;
53309;SDS011;39197;53.200;5.792;2023-04-25T13:22:13;5.07;;;1.30;;
53309;SDS011;39197;53.200;5.792;2023-04-25T13:24:41;7.18;;;1.85;;
53309;SDS011;39197;53.200;5.792;2023-04-25T13:27:07;5.80;;;1.25;;
53309;SDS011;39197;53.200;5.792;2023-04-25T13:29:33;5.45;;;1.10;;
53309;SDS011;39197;53.200;5.792;2023-04-25T13:32:01;7.57;;;1.55;;
53309;SDS011;39197;53.200;5.792;2023-04-25T13:34:28;10.95;;;1.30;;
53309;SDS011;39197;53.200;5.792;2023-04-25T13:36:54;5.72;;;0.63;;
53309;SDS011;39197;53.200;5.792;2023-04-25T13:39:20;5.43;;;0.93;;
53309;SDS011;39197;53.200;5.792;2023-04-25T13:41:46;7.05;;;1.83;;
53309;SDS011;39197;53.200;5.792;2023-04-25T13:44:18;6.00;;;1.38;;
53309;SDS011;39197;53.200;5.792;2023-04-25T13:46:43;8.43;;;1.08;;
53309;SDS011;39197;53.200;5.792;2023-04-25T13:49:10;8.77;;;2.00;;
53309;SDS011;39197;53.200;5.792;2023-04-25T13:51:36;6.90;;;0.60;;
53309;SDS011;39197;53.200;5.792;2023-04-25T13:54:01;6.35;;;1.67;;
53309;SDS011;39197;53.200;5.792;2023-04-25T13:56:27;6.55;;;2.00;;
53309;SDS011;39197;53.200;5.792;2023-04-25T13:58:53;5.80;;;1.10;;
53309;SDS011;39197;53.200;5.792;2023-04-25T14:01:18;8.05;;;2.70;;
53309;SDS011;39197;53.200;5.792;2023-04-25T14:03:47;3.65;;;0.90;;
53309;SDS011;39197;53.200;5.792;2023-04-25T14:06:12;4.93;;;1.40;;
53309;SDS011;39197;53.200;5.792;2023-04-25T14:08:38;10.05;;;1.50;;
53309;SDS011;39197;53.200;5.792;2023-04-25T14:11:04;9.18;;;1.00;;
53309;SDS011;39197;53.200;5.792;2023-04-25T14:13:30;7.53;;;1.27;;
53309;SDS011;39197;53.200;5.792;2023-04-25T14:15:56;11.57;;;1.58;;
53309;SDS011;39197;53.200;5.792;2023-04-25T14:18:22;11.40;;;1.58;;
53309;SDS011;39197;53.200;5.792;2023-04-25T14:20:47;8.35;;;1.05;;
53309;SDS011;39197;53.200;5.792;2023-04-25T14:23:13;10.32;;;1.33;;
53309;SDS011;39197;53.200;5.792;2023-04-25T14:25:39;10.30;;;1.63;;
53309;SDS011;39197;53.200;5.792;2023-04-25T14:28:05;11.82;;;2.13;;
53309;SDS011;39197;53.200;5.792;2023-04-25T14:30:31;7.65;;;1.17;;
53309;SDS011;39197;53.200;5.792;2023-04-25T14:32:56;7.40;;;1.05;;
53309;SDS011;39197;53.200;5.792;2023-04-25T14:35:22;11.32;;;1.00;;
53309;SDS011;39197;53.200;5.792;2023-04-25T14:37:48;6.05;;;1.77;;
53309;SDS011;39197;53.200;5.792;2023-04-25T14:40:13;7.75;;;1.23;;
53309;SDS011;39197;53.200;5.792;2023-04-25T14:42:40;7.53;;;2.10;;
53309;SDS011;39197;53.200;5.792;2023-04-25T14:45:06;7.97;;;1.13;;
53309;SDS011;39197;53.200;5.792;2023-04-25T14:47:33;12.48;;;1.50;;